Time;durP1;ratioP1;P1;durP2;ratioP2;P2;SDS_P1;SDS_P2;PMS_P1;PMS_P2;Temp;Humidity;BMP_temperature;BMP_pressure;BME280_temperature;BME280_humidity;BME280_pressure;Samples;Min_cycle;Max_cycle;Signal;HPM_P1;HPM_P2
2022/12/02 00:01:49;;;;;;;39.63;20.23;;;;;;;;;;6107768;23;20060;-92
2022/12/02 00:04:26;;;;;;;41.03;19.90;;;;;;;;;;6108519;23;20553;-93
2022/12/02 00:06:53;;;;;;;40.45;19.60;;;;;;;;;;6131922;23;20049;-95
2022/12/02 00:09:24;;;;;;;42.05;19.90;;;;;;;;;;6106970;23;20017;-94
2022/12/02 00:11:50;;;;;;;39.17;19.90;;;;;;;;;;6107878;23;20466;-95
2022/12/02 00:14:20;;;;;;;39.53;20.05;;;;;;;;;;6106831;23;20025;-94
2022/12/02 00:16:47;;;;;;;40.15;19.25;;;;;;;;;;6107287;23;20018;-95
2022/12/02 00:19:13;;;;;;;39.40;20.85;;;;;;;;;;6106826;23;20052;-95
2022/12/02 00:21:39;;;;;;;40.45;21.25;;;;;;;;;;6107551;23;20017;-94
2022/12/02 00:24:05;;;;;;;34.45;19.60;;;;;;;;;;6203702;22;20058;-96
2022/12/02 00:26:37;;;;;;;38.08;19.50;;;;;;;;;;6257312;22;20023;-96
2022/12/02 00:29:06;;;;;;;34.55;19.45;;;;;;;;;;6257122;22;20022;-96
2022/12/02 00:31:42;;;;;;;35.90;19.58;;;;;;;;;;6257563;22;20015;-95
2022/12/02 00:34:08;;;;;;;42.08;21.38;;;;;;;;;;6258188;22;20019;-96
2022/12/02 00:36:34;;;;;;;38.40;19.67;;;;;;;;;;6257444;22;20014;-95
2022/12/02 00:39:00;;;;;;;37.17;18.80;;;;;;;;;;6258174;22;20097;-95
2022/12/02 00:41:26;;;;;;;39.45;21.27;;;;;;;;;;6258241;22;20011;-96
2022/12/02 00:47:37;;;;;;;42.83;20.90;;;;;;;;;;6247544;23;20078;-96
2022/12/02 00:50:03;;;;;;;39.78;20.85;;;;;;;;;;6197855;23;20024;-95
2022/12/02 00:52:29;;;;;;;38.83;19.95;;;;;;;;;;6199793;23;20031;-95
2022/12/02 00:54:58;;;;;;;33.58;19.42;;;;;;;;;;6201007;23;20484;-94
2022/12/02 00:57:24;;;;;;;36.03;19.60;;;;;;;;;;6199745;23;20051;-94
2022/12/02 00:59:50;;;;;;;39.80;20.67;;;;;;;;;;6198620;23;20095;-94
2022/12/02 01:02:20;;;;;;;38.42;19.80;;;;;;;;;;6199079;23;20020;-95
2022/12/02 01:04:46;;;;;;;39.10;19.55;;;;;;;;;;6199600;23;20461;-93
2022/12/02 01:07:15;;;;;;;40.20;19.70;;;;;;;;;;6199051;23;20070;-95
2022/12/02 01:09:41;;;;;;;42.75;20.90;;;;;;;;;;6198722;23;20488;-95
2022/12/02 01:12:10;;;;;;;34.20;19.13;;;;;;;;;;6199802;23;20016;-94
2022/12/02 01:14:38;;;;;;;36.47;20.52;;;;;;;;;;6203849;23;20012;-96
2022/12/02 01:17:05;;;;;;;43.92;21.58;;;;;;;;;;6235691;22;20023;-94
2022/12/02 01:19:32;;;;;;;37.10;19.33;;;;;;;;;;6291208;22;20021;-94
2022/12/02 01:22:01;;;;;;;38.97;20.88;;;;;;;;;;6262617;22;20094;-94
2022/12/02 01:24:29;;;;;;;42.00;22.40;;;;;;;;;;6258600;22;20090;-96
2022/12/02 01:26:56;;;;;;;38.78;20.38;;;;;;;;;;6259523;22;20098;-95
2022/12/02 01:29:22;;;;;;;45.65;22.08;;;;;;;;;;6258888;22;20023;-95
2022/12/02 01:31:50;;;;;;;40.63;20.20;;;;;;;;;;6257934;22;20098;-93
2022/12/02 01:34:16;;;;;;;40.72;19.65;;;;;;;;;;6258186;22;20037;-94
2022/12/02 01:36:42;;;;;;;47.67;21.30;;;;;;;;;;6257258;22;20023;-95
2022/12/02 01:39:09;;;;;;;45.72;21.40;;;;;;;;;;6257242;22;20011;-96
2022/12/02 01:41:35;;;;;;;38.60;19.33;;;;;;;;;;6257729;22;20463;-93
2022/12/02 01:44:01;;;;;;;34.83;18.58;;;;;;;;;;6258747;22;20017;-93
2022/12/02 01:46:27;;;;;;;34.00;20.33;;;;;;;;;;6262695;22;20019;-93
2022/12/02 01:48:53;;;;;;;33.15;17.90;;;;;;;;;;6264372;22;20023;-93
2022/12/02 01:51:19;;;;;;;38.38;19.05;;;;;;;;;;6264484;22;20015;-94
2022/12/02 01:53:46;;;;;;;31.45;17.23;;;;;;;;;;6264685;22;20018;-94
2022/12/02 01:56:12;;;;;;;32.38;17.63;;;;;;;;;;6263735;22;20067;-94
2022/12/02 01:58:38;;;;;;;42.47;19.20;;;;;;;;;;6284113;22;20011;-94
2022/12/02 02:01:21;;;;;;;37.72;19.30;;;;;;;;;;6255837;22;20034;-95
2022/12/02 02:03:47;;;;;;;36.22;18.90;;;;;;;;;;6256205;22;20037;-94
2022/12/02 02:06:13;;;;;;;41.60;18.70;;;;;;;;;;6257182;22;20055;-95
2022/12/02 02:08:41;;;;;;;37.00;18.80;;;;;;;;;;6257504;22;20290;-94
2022/12/02 02:11:08;;;;;;;36.88;17.30;;;;;;;;;;6255919;22;20068;-95
2022/12/02 02:13:36;;;;;;;45.50;20.52;;;;;;;;;;6256092;22;20047;-94
2022/12/02 02:16:05;;;;;;;41.67;20.77;;;;;;;;;;6256268;22;20467;-95
2022/12/02 02:18:40;;;;;;;37.92;18.33;;;;;;;;;;6256483;22;20065;-95
2022/12/02 02:21:09;;;;;;;33.92;18.17;;;;;;;;;;6255989;22;20011;-95
2022/12/02 02:23:36;;;;;;;39.72;18.63;;;;;;;;;;6256432;22;20015;-96
2022/12/02 02:26:03;;;;;;;45.85;19.42;;;;;;;;;;6256027;22;20070;-93
2022/12/02 02:28:29;;;;;;;39.70;21.25;;;;;;;;;;6257064;22;20022;-96
2022/12/02 02:30:56;;;;;;;40.70;18.77;;;;;;;;;;6256207;22;20103;-93
2022/12/02 02:33:24;;;;;;;44.53;19.83;;;;;;;;;;6256412;22;20022;-95
2022/12/02 02:35:53;;;;;;;38.63;20.45;;;;;;;;;;6257987;22;20034;-93
2022/12/02 02:38:24;;;;;;;40.63;20.95;;;;;;;;;;6259225;22;20015;-93
2022/12/02 02:40:51;;;;;;;42.50;18.88;;;;;;;;;;6259230;22;20508;-94
2022/12/02 02:43:18;;;;;;;41.88;21.67;;;;;;;;;;6261236;22;20026;-95
2022/12/02 02:45:44;;;;;;;45.90;20.50;;;;;;;;;;6287842;22;20045;-93
2022/12/02 02:48:12;;;;;;;40.42;20.17;;;;;;;;;;6261511;22;20015;-93
2022/12/02 02:50:40;;;;;;;46.85;19.33;;;;;;;;;;6259623;22;20116;-94
2022/12/02 02:53:06;;;;;;;42.75;20.48;;;;;;;;;;6258560;22;20023;-93
2022/12/02 02:55:33;;;;;;;45.00;18.08;;;;;;;;;;6257475;22;20007;-93
2022/12/02 02:58:14;;;;;;;48.03;20.58;;;;;;;;;;6258696;22;20019;-93
2022/12/02 03:00:45;;;;;;;42.95;20.77;;;;;;;;;;6257760;22;20069;-94
2022/12/02 03:03:13;;;;;;;41.97;21.05;;;;;;;;;;6259696;22;20329;-93
2022/12/02 03:05:39;;;;;;;46.97;19.83;;;;;;;;;;6258528;22;20011;-95
2022/12/02 03:08:06;;;;;;;38.40;20.35;;;;;;;;;;6258040;22;20020;-93
2022/12/02 03:10:32;;;;;;;50.83;22.27;;;;;;;;;;6257766;22;20015;-93
2022/12/02 03:13:01;;;;;;;42.05;18.98;;;;;;;;;;6258665;22;20016;-95
2022/12/02 03:15:28;;;;;;;44.47;21.63;;;;;;;;;;6259141;22;20042;-94
2022/12/02 03:17:55;;;;;;;43.72;19.70;;;;;;;;;;6257854;22;20021;-94
2022/12/02 03:20:22;;;;;;;42.78;21.92;;;;;;;;;;6257583;22;20019;-94
2022/12/02 03:22:48;;;;;;;42.08;21.15;;;;;;;;;;6257546;22;20094;-94
2022/12/02 03:25:14;;;;;;;42.30;20.80;;;;;;;;;;6256913;22;20094;-94
2022/12/02 03:27:43;;;;;;;41.35;21.10;;;;;;;;;;6258018;22;20031;-94
2022/12/02 03:30:10;;;;;;;39.83;20.33;;;;;;;;;;6257364;22;20015;-95
2022/12/02 03:32:36;;;;;;;47.05;21.95;;;;;;;;;;6257307;22;20019;-96
2022/12/02 03:35:03;;;;;;;36.88;19.73;;;;;;;;;;6257540;22;20011;-94
2022/12/02 03:37:29;;;;;;;40.75;20.25;;;;;;;;;;6257390;22;20019;-92
2022/12/02 03:39:57;;;;;;;40.50;20.35;;;;;;;;;;6257802;22;20011;-93
2022/12/02 03:42:25;;;;;;;48.28;20.90;;;;;;;;;;6257106;22;20015;-94
2022/12/02 03:44:53;;;;;;;44.75;20.52;;;;;;;;;;6257131;22;20022;-95
2022/12/02 03:47:22;;;;;;;36.13;18.73;;;;;;;;;;6257197;22;20019;-95
2022/12/02 03:49:48;;;;;;;43.63;21.10;;;;;;;;;;6257520;22;20015;-94
2022/12/02 03:52:14;;;;;;;40.13;18.35;;;;;;;;;;6257948;22;20015;-96
2022/12/02 03:54:40;;;;;;;42.13;19.35;;;;;;;;;;6257923;22;20015;-94
2022/12/02 03:57:07;;;;;;;36.83;20.48;;;;;;;;;;6257872;22;20022;-94
2022/12/02 03:59:33;;;;;;;36.22;16.75;;;;;;;;;;6257255;22;20019;-96
2022/12/02 04:02:00;;;;;;;31.05;16.67;;;;;;;;;;6261156;22;20051;-95
2022/12/02 04:04:26;;;;;;;37.65;17.92;;;;;;;;;;6262335;22;20015;-96
2022/12/02 04:06:52;;;;;;;38.33;17.40;;;;;;;;;;6260664;22;20015;-94
2022/12/02 04:09:18;;;;;;;37.00;18.75;;;;;;;;;;6260447;22;20090;-95
2022/12/02 04:11:44;;;;;;;44.38;20.15;;;;;;;;;;6258706;22;20015;-96
2022/12/02 04:14:10;;;;;;;41.60;19.45;;;;;;;;;;6257291;22;20046;-96
2022/12/02 04:16:36;;;;;;;33.25;17.00;;;;;;;;;;6257735;22;20019;-96
2022/12/02 04:19:02;;;;;;;37.20;18.35;;;;;;;;;;6257830;22;20060;-94
2022/12/02 04:21:29;;;;;;;39.58;17.98;;;;;;;;;;6256950;22;20077;-95
2022/12/02 04:23:57;;;;;;;39.53;17.73;;;;;;;;;;6257255;22;20058;-95
2022/12/02 04:26:25;;;;;;;37.00;17.60;;;;;;;;;;6256945;22;20023;-95
2022/12/02 04:28:54;;;;;;;40.58;18.83;;;;;;;;;;6257530;22;20022;-94
2022/12/02 04:31:23;;;;;;;40.50;17.65;;;;;;;;;;6256408;22;20022;-94
2022/12/02 04:33:52;;;;;;;41.78;18.40;;;;;;;;;;6258112;22;20012;-94
2022/12/02 04:36:18;;;;;;;40.95;18.35;;;;;;;;;;6257041;22;20018;-95
2022/12/02 04:38:49;;;;;;;39.65;17.27;;;;;;;;;;6258004;22;20497;-95
2022/12/02 04:41:15;;;;;;;34.08;16.80;;;;;;;;;;6257603;22;20012;-93
2022/12/02 04:43:41;;;;;;;37.17;18.08;;;;;;;;;;6258608;22;20090;-94
2022/12/02 04:46:07;;;;;;;36.33;18.60;;;;;;;;;;6258099;22;20501;-94
2022/12/02 04:48:33;;;;;;;46.88;19.48;;;;;;;;;;6256581;22;20026;-93
2022/12/02 04:51:00;;;;;;;46.45;18.17;;;;;;;;;;6256582;22;20015;-93
2022/12/02 04:53:26;;;;;;;45.13;19.25;;;;;;;;;;6256780;22;20022;-96
2022/12/02 04:55:52;;;;;;;40.30;19.02;;;;;;;;;;6256537;22;20047;-96
2022/12/02 04:58:18;;;;;;;35.33;18.73;;;;;;;;;;6257186;22;20011;-95
2022/12/02 05:00:44;;;;;;;36.72;17.98;;;;;;;;;;6257810;22;20027;-94
2022/12/02 05:03:10;;;;;;;41.40;19.40;;;;;;;;;;6259179;22;20019;-96
2022/12/02 05:05:36;;;;;;;42.13;19.67;;;;;;;;;;6258939;22;20012;-95
2022/12/02 05:08:02;;;;;;;35.70;17.70;;;;;;;;;;6256621;22;20023;-94
2022/12/02 05:10:28;;;;;;;35.20;18.00;;;;;;;;;;6256258;22;20015;-93
2022/12/02 05:12:54;;;;;;;37.47;18.38;;;;;;;;;;6257348;22;20020;-93
2022/12/02 05:15:23;;;;;;;37.58;18.73;;;;;;;;;;6256560;22;20033;-93
2022/12/02 05:17:49;;;;;;;42.90;19.17;;;;;;;;;;6256292;22;20145;-94
2022/12/02 05:20:16;;;;;;;44.47;17.77;;;;;;;;;;6256144;22;20050;-95
2022/12/02 05:22:42;;;;;;;38.70;18.92;;;;;;;;;;6257040;22;20019;-94
2022/12/02 05:25:08;;;;;;;39.03;19.80;;;;;;;;;;6256125;22;20047;-94
2022/12/02 05:27:34;;;;;;;36.97;18.67;;;;;;;;;;6256800;22;20118;-93
2022/12/02 05:30:00;;;;;;;40.22;20.20;;;;;;;;;;6256233;22;20018;-93
2022/12/02 05:32:26;;;;;;;43.33;19.70;;;;;;;;;;6257321;22;20051;-96
2022/12/02 05:34:53;;;;;;;45.25;20.75;;;;;;;;;;6255895;22;20023;-94
2022/12/02 05:37:19;;;;;;;40.75;20.35;;;;;;;;;;6257424;22;20015;-95
2022/12/02 05:39:45;;;;;;;42.63;20.10;;;;;;;;;;6256344;22;20089;-93
2022/12/02 05:42:12;;;;;;;43.45;20.02;;;;;;;;;;6256274;22;20033;-96
2022/12/02 05:44:39;;;;;;;37.17;18.55;;;;;;;;;;6283022;22;20064;-93
2022/12/02 05:47:12;;;;;;;40.00;19.77;;;;;;;;;;6256920;22;20045;-93
2022/12/02 05:49:39;;;;;;;41.80;20.08;;;;;;;;;;6255866;22;20020;-93
2022/12/02 05:52:17;;;;;;;41.35;21.48;;;;;;;;;;6255897;22;20103;-94
2022/12/02 05:54:43;;;;;;;49.53;21.38;;;;;;;;;;6255966;22;20062;-95
2022/12/02 05:57:11;;;;;;;44.53;20.90;;;;;;;;;;6255936;22;20445;-96
2022/12/02 05:59:37;;;;;;;38.90;19.05;;;;;;;;;;6257096;22;20452;-93
2022/12/02 06:02:05;;;;;;;47.78;19.52;;;;;;;;;;6256202;22;20015;-95
2022/12/02 06:04:32;;;;;;;49.20;22.52;;;;;;;;;;6256153;22;20019;-93
2022/12/02 06:07:02;;;;;;;47.75;21.05;;;;;;;;;;6258957;22;20065;-94
2022/12/02 06:09:30;;;;;;;43.33;20.75;;;;;;;;;;6257850;22;20026;-93
2022/12/02 06:11:56;;;;;;;49.97;21.73;;;;;;;;;;6256581;22;20015;-93
2022/12/02 06:14:24;;;;;;;45.90;21.63;;;;;;;;;;6257156;22;20022;-92
2022/12/02 06:16:56;;;;;;;53.42;21.77;;;;;;;;;;6257761;22;20404;-96
2022/12/02 06:19:25;;;;;;;48.65;22.42;;;;;;;;;;6257974;22;20022;-92
2022/12/02 06:21:51;;;;;;;51.17;21.73;;;;;;;;;;6258155;22;20011;-94
2022/12/02 06:24:20;;;;;;;45.00;22.25;;;;;;;;;;6258277;22;20102;-93
2022/12/02 06:26:46;;;;;;;49.83;21.05;;;;;;;;;;6257734;22;20055;-95
2022/12/02 06:29:16;;;;;;;48.63;21.13;;;;;;;;;;6257832;22;20012;-92
2022/12/02 06:31:43;;;;;;;53.10;22.50;;;;;;;;;;6259078;22;20448;-92
2022/12/02 06:34:24;;;;;;;54.33;22.35;;;;;;;;;;6257677;22;20015;-91
2022/12/02 06:36:50;;;;;;;53.65;22.08;;;;;;;;;;6257570;22;20015;-93
2022/12/02 06:39:23;;;;;;;56.97;23.50;;;;;;;;;;6257871;22;20015;-92
2022/12/02 06:41:49;;;;;;;51.75;21.50;;;;;;;;;;6257512;22;20022;-94
2022/12/02 06:47:23;;;;;;;49.67;21.40;;;;;;;;;;6283106;22;20022;-92
2022/12/02 06:49:49;;;;;;;49.08;21.55;;;;;;;;;;6257485;22;20018;-92
2022/12/02 06:52:21;;;;;;;55.25;21.17;;;;;;;;;;6257201;22;20026;-92
2022/12/02 06:54:47;;;;;;;53.60;23.58;;;;;;;;;;6257314;22;20011;-91
2022/12/02 06:57:16;;;;;;;53.88;21.58;;;;;;;;;;6257324;22;20093;-93
2022/12/02 06:59:43;;;;;;;57.17;21.05;;;;;;;;;;6257275;22;20011;-93
2022/12/02 07:02:32;;;;;;;50.55;21.13;;;;;;;;;;6258411;22;20017;-92
2022/12/02 07:04:59;;;;;;;52.13;21.00;;;;;;;;;;6106799;23;20013;-92
2022/12/02 07:07:29;;;;;;;53.90;22.17;;;;;;;;;;6107844;23;20052;-92
2022/12/02 07:09:57;;;;;;;41.45;19.83;;;;;;;;;;6106696;23;20017;-94
2022/12/02 07:12:24;;;;;;;45.95;21.48;;;;;;;;;;6107055;23;20443;-92
2022/12/02 07:14:50;;;;;;;48.72;21.83;;;;;;;;;;6107582;23;20364;-92
2022/12/02 07:17:20;;;;;;;52.58;22.70;;;;;;;;;;6107753;23;20467;-92
2022/12/02 07:19:48;;;;;;;47.58;20.02;;;;;;;;;;6107074;23;20093;-93
2022/12/02 07:22:14;;;;;;;52.17;21.73;;;;;;;;;;6106976;23;20029;-92
2022/12/02 07:24:40;;;;;;;51.10;22.17;;;;;;;;;;6106653;23;20060;-93
2022/12/02 07:27:27;;;;;;;50.95;21.10;;;;;;;;;;6107102;23;20486;-93
2022/12/02 07:29:54;;;;;;;45.92;20.80;;;;;;;;;;6106718;23;20021;-93
2022/12/02 07:32:20;;;;;;;45.05;20.95;;;;;;;;;;6107311;23;20021;-94
2022/12/02 07:34:46;;;;;;;47.20;21.73;;;;;;;;;;6129782;23;20018;-92
2022/12/02 07:37:12;;;;;;;46.40;21.90;;;;;;;;;;6106579;23;20018;-92
2022/12/02 07:39:38;;;;;;;54.53;19.88;;;;;;;;;;6106525;23;20048;-93
2022/12/02 07:42:04;;;;;;;53.70;21.92;;;;;;;;;;6174078;22;20488;-93
2022/12/02 07:44:30;;;;;;;43.25;19.98;;;;;;;;;;6251199;22;20016;-92
2022/12/02 07:46:56;;;;;;;47.13;19.77;;;;;;;;;;6251008;22;20019;-92
2022/12/02 07:49:22;;;;;;;43.55;20.33;;;;;;;;;;6251149;22;20011;-94
2022/12/02 07:51:49;;;;;;;49.78;20.75;;;;;;;;;;6251736;22;20019;-94
2022/12/02 07:54:15;;;;;;;40.80;19.67;;;;;;;;;;6251176;22;20015;-93
2022/12/02 07:56:41;;;;;;;46.70;19.25;;;;;;;;;;6251136;22;20512;-92
2022/12/02 07:59:07;;;;;;;42.58;18.60;;;;;;;;;;6250704;22;20090;-92
2022/12/02 08:01:33;;;;;;;49.33;20.00;;;;;;;;;;6250551;22;20019;-92
2022/12/02 08:03:59;;;;;;;49.78;21.75;;;;;;;;;;6250553;22;20054;-93
2022/12/02 08:09:43;;;;;;;50.47;22.25;;;;;;;;;;6270311;22;20047;-94
2022/12/02 08:14:50;;;;;;;42.25;19.65;;;;;;;;;;6258112;22;20161;-94
2022/12/02 08:17:19;;;;;;;46.95;21.17;;;;;;;;;;6245867;22;20028;-91
2022/12/02 08:22:26;;;;;;;50.97;20.85;;;;;;;;;;6266251;22;20428;-93
2022/12/02 08:24:58;;;;;;;45.88;22.40;;;;;;;;;;6237828;22;20069;-91
2022/12/02 08:27:27;;;;;;;48.95;21.30;;;;;;;;;;6257280;22;20019;-90
2022/12/02 09:32:07;;;;;;;38.20;16.08;;;;;;;;;;6284854;22;20023;-94
2022/12/02 09:34:50;;;;;;;37.97;15.63;;;;;;;;;;6184406;22;20083;-93
2022/12/02 09:37:49;;;;;;;40.35;15.30;;;;;;;;;;6229500;22;20023;-91
2022/12/02 09:47:20;;;;;;;29.17;13.13;;;2.70;99.90;;;;;;6264118;22;20034;31
2022/12/02 09:49:47;;;;;;;34.95;16.13;;;;;;;;;;6137003;22;20025;-92
2022/12/02 10:38:50;;;;;;;38.05;17.20;;;;;;;;;;6211921;22;20341;-89
2022/12/02 10:44:48;;;;;;;39.80;19.05;;;;;;;;;;6188371;23;20083;-90
2022/12/02 10:47:27;;;;;;;37.10;15.98;;;;;;;;;;6212837;23;20013;-90
2022/12/02 10:57:45;;;;;;;;;;;;;;;;;;;;;
2022/12/02 11:17:21;;;;;;;39.65;18.38;;;;;;;;;;6275655;22;20020;31
2022/12/02 11:20:23;;;;;;;37.58;17.90;;;;;;;;;;6136662;23;20067;-89
2022/12/02 11:23:05;;;;;;;41.00;18.25;;;;;;;;;;6136173;23;20512;-89
2022/12/02 11:25:47;;;;;;;34.78;18.05;;;;;;;;;;6135785;23;20021;-88
2022/12/02 11:28:29;;;;;;;44.92;22.50;;;;;;;;;;6136760;23;20021;-89
2022/12/02 11:31:17;;;;;;;42.55;19.17;;;;;;;;;;6140163;23;20505;-89
2022/12/02 11:33:43;;;;;;;49.55;21.85;;;;;;;;;;6191985;23;20016;-88
2022/12/02 11:36:10;;;;;;;51.33;22.45;;;;;;;;;;6166949;23;20472;-89
2022/12/02 11:39:00;;;;;;;41.60;20.55;;;;;;;;;;6166596;23;20095;-89
2022/12/02 11:41:30;;;;;;;50.03;21.52;;;;;;;;;;6167448;23;20012;-89
2022/12/02 11:43:59;;;;;;;44.70;22.73;;;;;;;;;;6166601;23;20071;-89
2022/12/02 11:46:45;;;;;;;39.28;20.80;;;;;;;;;;6166898;23;20020;-89
2022/12/02 11:49:19;;;;;;;39.88;20.15;;;;;;;;;;6166133;23;20653;-87
2022/12/02 11:51:48;;;;;;;46.72;23.27;;;;;;;;;;6191425;23;20056;-89
2022/12/02 11:54:16;;;;;;;38.90;20.20;;;;;;;;;;6192367;23;20055;-88
2022/12/02 11:56:43;;;;;;;42.60;22.40;;;;;;;;;;6167688;23;20060;-89
2022/12/02 11:59:25;;;;;;;34.13;20.92;;;;;;;;;;6168176;23;20075;-89
2022/12/02 12:02:06;;;;;;;41.22;22.35;;;;;;;;;;6168943;23;20101;-89
2022/12/02 12:04:32;;;;;;;41.03;21.40;;;;;;;;;;6167344;23;20028;-89
2022/12/02 12:06:59;;;;;;;42.25;21.20;;;;;;;;;;6166941;23;20013;-88
2022/12/02 12:09:26;;;;;;;37.03;20.52;;;;;;;;;;6166844;23;20032;-90
2022/12/02 12:12:08;;;;;;;40.67;21.60;;;;;;;;;;6167382;23;20025;-89
2022/12/02 12:14:52;;;;;;;42.60;21.77;;;;;;;;;;6166452;23;20105;-90
2022/12/02 12:17:29;;;;;;;37.50;20.55;;;;;;;;;;6167603;23;20012;-88
2022/12/02 12:19:55;;;;;;;39.25;20.90;;;;;;;;;;6167855;23;20017;-87
2022/12/02 12:22:43;;;;;;;;;;;;;;;;;;;;;
2022/12/02 12:25:28;;;;;;;41.05;21.40;;;;;;;;;;6191466;23;20040;-90
2022/12/02 12:27:56;;;;;;;37.00;20.50;;;;;;;;;;6168154;23;20434;-90
2022/12/02 12:30:25;;;;;;;38.05;19.90;;;;;;;;;;6167123;23;20044;-90
2022/12/02 12:32:52;;;;;;;37.88;20.05;;;;;;;;;;6168166;23;20025;-89
2022/12/02 12:35:18;;;;;;;36.55;19.42;;;;;;;;;;6191713;23;20508;-89
2022/12/02 12:37:44;;;;;;;36.72;19.10;;;;;;;;;;6166452;23;20027;-88
2022/12/02 12:40:11;;;;;;;36.13;17.70;;;;;;;;;;6166471;23;20091;-88
2022/12/02 12:42:40;;;;;;;32.50;16.67;;;;;;;;;;6192580;23;20024;-88
2022/12/02 12:45:06;;;;;;;35.22;17.88;;;;;;;;;;6167017;23;20052;-90
2022/12/02 12:47:33;;;;;;;31.73;16.48;;;;;;;;;;6165864;23;20023;-88
2022/12/02 12:49:59;;;;;;;35.50;17.95;;;;;;;;;;6165900;23;20021;-88
2022/12/02 12:52:25;;;;;;;37.20;18.98;;;;;;;;;;6217801;23;20027;-87
2022/12/02 12:54:52;;;;;;;37.28;19.17;;;;;;;;;;6165039;23;20027;-88
2022/12/02 12:57:19;;;;;;;39.92;21.02;;;;;;;;;;6166404;23;20027;-86
2022/12/02 12:59:45;;;;;;;35.50;17.85;;;;;;;;;;6164668;23;20084;-88
2022/12/02 13:02:11;;;;;;;30.33;16.67;;;;;;;;;;6190025;23;20023;-87
2022/12/02 13:04:37;;;;;;;33.45;18.40;;;;;;;;;;6190088;23;20078;-86
2022/12/02 13:07:03;;;;;;;33.47;17.17;;;;;;;;;;6188744;23;20345;-86
2022/12/02 13:09:29;;;;;;;27.80;14.52;;;;;;;;;;6164703;23;20023;-86
2022/12/02 13:11:55;;;;;;;28.85;14.93;;;;;;;;;;6164654;23;20454;-86
2022/12/02 13:14:21;;;;;;;23.60;13.82;;;;;;;;;;6165542;23;20367;-87
2022/12/02 13:16:47;;;;;;;25.55;15.32;;;;;;;;;;6164595;23;20012;-88
2022/12/02 13:19:14;;;;;;;27.75;14.90;;;;;;;;;;6159458;23;20025;-88
2022/12/02 13:21:40;;;;;;;38.90;16.50;;;;;;;;;;6161456;23;20017;-88
2022/12/02 13:24:06;;;;;;;28.25;15.38;;;;;;;;;;6159326;23;20451;-87
2022/12/02 13:26:35;;;;;;;29.25;14.25;;;;;;;;;;6160454;23;20025;-88
2022/12/02 13:29:02;;;;;;;26.95;15.43;;;;;;;;;;6160335;23;20025;-88
2022/12/02 13:31:28;;;;;;;31.08;14.55;;;;;;;;;;6161033;23;20067;-89
2022/12/02 13:33:54;;;;;;;26.73;14.52;;;;;;;;;;6161116;23;20079;-89
2022/12/02 13:36:20;;;;;;;23.25;14.13;;;;;;;;;;6159670;23;20083;-90
2022/12/02 13:38:46;;;;;;;27.70;14.75;;;;;;;;;;6159700;23;20049;-87
2022/12/02 13:41:12;;;;;;;28.75;16.10;;;;;;;;;;6185569;23;20087;-87
2022/12/02 13:43:38;;;;;;;30.27;15.70;;;;;;;;;;6159393;23;20032;-87
2022/12/02 13:46:04;;;;;;;26.63;14.85;;;;;;;;;;6186991;23;20067;-87
2022/12/02 13:48:30;;;;;;;25.88;14.90;;;;;;;;;;6183936;23;20045;-88
2022/12/02 13:50:56;;;;;;;29.65;16.27;;;;;;;;;;6185460;23;20103;-88
2022/12/02 13:53:23;;;;;;;34.47;16.60;;;;;;;;;;6184904;23;20079;-87
2022/12/02 13:55:49;;;;;;;36.45;17.98;;;;;;;;;;6160847;23;20021;-87
2022/12/02 13:58:15;;;;;;;37.15;17.23;;;;;;;;;;6160900;23;20024;-88
2022/12/02 14:00:41;;;;;;;38.42;20.38;;;;;;;;;;6161268;23;20144;-87
2022/12/02 14:03:07;;;;;;;34.13;18.13;;;;;;;;;;6185323;23;20023;-87
2022/12/02 14:05:33;;;;;;;34.88;19.95;;;;;;;;;;6159543;23;20017;-87
2022/12/02 14:07:59;;;;;;;32.92;15.95;;;;;;;;;;6160626;23;20021;-88
2022/12/02 14:10:25;;;;;;;33.13;18.10;;;;;;;;;;6159279;23;20017;-88
2022/12/02 14:12:52;;;;;;;39.63;19.40;;;;;;;;;;6160508;23;20218;-87
2022/12/02 14:15:18;;;;;;;36.67;20.75;;;;;;;;;;6185670;23;20091;-89
2022/12/02 14:18:00;;;;;;;47.88;20.98;;;;;;;;;;6158894;23;20025;-89
2022/12/02 14:20:28;;;;;;;39.97;19.90;;;;;;;;;;6160558;23;20025;-93
2022/12/02 14:22:55;;;;;;;38.05;19.15;;;;;;;;;;6185150;23;20017;-91
2022/12/02 14:25:21;;;;;;;38.03;21.85;;;;;;;;;;6160848;23;20088;-95
2022/12/02 14:27:47;;;;;;;36.67;17.17;;;;;;;;;;6160317;23;20072;-92
2022/12/02 14:30:20;;;;;;;40.60;20.65;;;;;;;;;;6159515;23;20044;-89
2022/12/02 14:33:08;;;;;;;35.47;19.60;;;;;;;;;;6158715;23;20082;-91
2022/12/02 14:35:34;;;;;;;40.35;19.58;;;;;;;;;;6160439;23;20410;-90
2022/12/02 14:38:00;;;;;;;34.58;19.50;;;;;;;;;;6161141;23;20373;-90
2022/12/02 14:40:52;;;;;;;33.90;17.60;;;;;;;;;;6186014;23;20013;-91
2022/12/02 14:43:21;;;;;;;;;;;2.80;99.90;;;;;;6072961;23;20022;-95
2022/12/02 14:45:50;;;;;;;35.10;18.75;;;;;;;;;;6073530;23;19917;-91
2022/12/02 14:48:16;;;;;;;36.88;19.42;;;;;;;;;;6073076;23;20077;-90
2022/12/02 14:50:42;;;;;;;43.42;20.48;;;;;;;;;;6071735;23;20027;-89
2022/12/02 14:53:13;;;;;;;38.65;20.90;;;;;;;;;;6073483;23;20057;-95
2022/12/02 14:55:47;;;;;;;39.15;20.65;;;;;;;;;;6079969;23;20018;-96
2022/12/02 14:58:13;;;;;;;41.00;20.17;;;;;;;;;;6079704;23;20018;-93
2022/12/02 15:00:40;;;;;;;40.05;19.92;;;;;;;;;;6080655;23;20010;-91
2022/12/02 15:03:06;;;;;;;39.05;19.83;;;;;;;;;;6075502;23;20050;-92
2022/12/02 15:05:32;;;;;;;41.83;20.83;;;;;;;;;;6074642;23;20524;-90
2022/12/02 15:07:58;;;;;;;44.42;20.23;;;;;;;;;;6073890;23;20049;-91
2022/12/02 15:10:24;;;;;;;44.17;20.67;;;;;;;;;;6097025;23;20034;-89
2022/12/02 15:12:50;;;;;;;38.15;21.63;;;;;;;;;;6096810;23;20024;-92
2022/12/02 15:15:16;;;;;;;38.35;20.08;;;;;;;;;;6073683;23;20049;-94
2022/12/02 15:17:42;;;;;;;44.88;21.98;;;;;;;;;;6072625;23;20022;-91
2022/12/02 15:20:08;;;;;;;39.40;21.35;;;;;;;;;;6112729;23;20035;-93
2022/12/02 15:22:34;;;;;;;43.08;21.08;;;;;;;;;;6161856;23;20053;-93
2022/12/02 15:25:00;;;;;;;39.45;19.80;;;;;;;;;;6162753;23;20013;-93
2022/12/02 15:27:26;;;;;;;36.30;18.13;;;;;;;;;;6161124;23;20481;-89
2022/12/02 15:29:53;;;;;;;47.90;20.10;;;;;;;;;;6160627;23;20017;-89
2022/12/02 15:32:51;;;;;;;;;;;;;;;;;;;;;
2022/12/02 15:35:21;;;;;;;38.60;19.95;;;;;;;;;;6184950;23;20013;-89
2022/12/02 15:37:47;;;;;;;43.50;22.20;;;;;;;;;;6160504;23;20021;-89
2022/12/02 15:40:13;;;;;;;43.85;21.52;;;;;;;;;;6161424;23;20013;-90
2022/12/02 15:42:42;;;;;;;44.35;21.17;;;;;;;;;;6160584;23;20031;-89
2022/12/02 15:45:08;;;;;;;52.15;23.13;;;;;;;;;;6160318;23;20021;-89
2022/12/02 15:48:14;;;;;;;43.90;21.98;;;;;;;;;;6160531;23;20024;-90
2022/12/02 15:50:42;;;;;;;43.42;20.42;;;;;;;;;;6184364;23;20079;-92
2022/12/02 15:55:44;;;;;;;37.13;18.85;;;;;;;;;;6247364;23;20433;-90
2022/12/02 15:58:10;;;;;;;45.30;23.10;;;;;;;;;;6196116;23;20024;-90
2022/12/02 16:00:36;;;;;;;40.70;20.13;;;;;;;;;;6196292;23;20034;-89
2022/12/02 16:03:02;;;;;;;37.95;20.10;;;;;;;;;;6196014;23;20417;-89
2022/12/02 16:05:28;;;;;;;40.83;19.92;;;;;;;;;;6195800;23;20012;-91
2022/12/02 16:07:57;;;;;;;44.28;21.88;;;;;;;;;;6221011;23;20393;-92
2022/12/02 16:10:23;;;;;;;35.05;18.75;;;;;;;;;;6195302;23;20070;-88
2022/12/02 16:13:16;;;;;;;44.53;22.83;;;;;;;;;;6220043;23;20024;-93
2022/12/02 16:15:42;;;;;;;42.30;19.83;;;;;;;;;;6188878;23;20016;-89
2022/12/02 16:18:10;;;;;;;40.45;20.20;;;;;;;;;;6220119;23;20068;-90
2022/12/02 16:20:39;;;;;;;40.78;22.30;;;;;;;;;;6196487;23;20069;-87
2022/12/02 16:23:05;;;;;;;41.70;20.13;;;;;;;;;;6195022;23;20016;-88
2022/12/02 16:25:41;;;;;;;47.38;22.23;;;;;;;;;;6195062;23;20099;-89
2022/12/02 16:28:36;;;;;;;44.97;21.70;;;;;;;;;;6196189;23;20098;-91
2022/12/02 16:31:12;;;;;;;43.53;21.67;;;;;;;;;;6175890;23;20020;-91
2022/12/02 16:33:38;;;;;;;44.22;20.98;;;;;;;;;;6165716;23;20016;-91
2022/12/02 16:36:04;;;;;;;40.65;20.60;;;;;;;;;;6165766;23;20017;-91
2022/12/02 16:38:30;;;;;;;41.55;21.63;;;;;;;;;;6164916;23;20458;-90
2022/12/02 16:43:32;;;;;;;39.95;21.00;;;;;;;;;;6277584;22;20085;-90
2022/12/02 16:46:00;;;;;;;42.35;20.15;;;;;;;;;;6225150;22;20024;-90
2022/12/02 16:48:29;;;;;;;44.05;20.75;;;;;;;;;;6225618;22;20019;-90
2022/12/02 16:50:55;;;;;;;40.15;19.65;;;;;;;;;;6226184;22;20012;-89
2022/12/02 16:53:22;;;;;;;41.25;18.42;;;;;;;;;;6224865;22;20077;-87
2022/12/02 16:55:48;;;;;;;35.10;20.80;;;;;;;;;;6250027;22;20054;-87
2022/12/02 16:58:14;;;;;;;38.13;19.27;;;;;;;;;;6249748;22;20019;-88
2022/12/02 17:00:42;;;;;;;45.13;21.38;;;;;;;;;;6249259;22;20404;-90
2022/12/02 17:03:23;;;;;;;42.42;20.73;;;;;;;;;;6226283;22;20317;-90
2022/12/02 17:05:55;;;;;;;35.67;19.80;;;;;;;;;;6226131;22;20015;-89
2022/12/02 17:08:21;;;;;;;39.13;20.15;;;;;;;;;;6224995;22;20019;-90
2022/12/02 17:10:47;;;;;;;44.92;21.50;;;;;;;;;;6250696;22;20026;-89
2022/12/02 17:13:13;;;;;;;41.10;20.52;;;;;;;;;;6234112;22;20020;-89